sensor_id;sensor_type;location;lat;lon;timestamp;pressure;altitude;pressure_sealevel;temperature;humidity
54236;BME280;40151;43.606;1.472;2023-04-04T00:00:14;99401.53;;;17.77;57.52
54236;BME280;40151;43.606;1.472;2023-04-04T00:02:39;99395.31;;;17.78;57.24
54236;BME280;40151;43.606;1.472;2023-04-04T00:05:05;99401.53;;;17.77;57.11
54236;BME280;40151;43.606;1.472;2023-04-04T00:07:32;99398.88;;;17.77;57.14
54236;BME280;40151;43.606;1.472;2023-04-04T00:09:57;99398.06;;;17.75;57.22
54236;BME280;40151;43.606;1.472;2023-04-04T00:12:23;99404.22;;;17.75;57.40
54236;BME280;40151;43.606;1.472;2023-04-04T00:14:49;99407.81;;;17.74;57.02
54236;BME280;40151;43.606;1.472;2023-04-04T00:17:15;99411.38;;;17.73;57.21
54236;BME280;40151;43.606;1.472;2023-04-04T00:19:41;99421.94;;;17.73;56.97
54236;BME280;40151;43.606;1.472;2023-04-04T00:22:06;99418.41;;;17.73;57.10
54236;BME280;40151;43.606;1.472;2023-04-04T00:24:32;99411.38;;;17.73;57.21
54236;BME280;40151;43.606;1.472;2023-04-04T00:26:58;99411.38;;;17.73;57.07
54236;BME280;40151;43.606;1.472;2023-04-04T00:29:24;99407.81;;;17.74;57.16
54236;BME280;40151;43.606;1.472;2023-04-04T00:31:49;99401.72;;;17.72;57.42
54236;BME280;40151;43.606;1.472;2023-04-04T00:34:14;99402.66;;;17.71;57.00
54236;BME280;40151;43.606;1.472;2023-04-04T00:36:40;99401.81;;;17.70;57.14
54236;BME280;40151;43.606;1.472;2023-04-04T00:39:05;99399.19;;;17.70;56.87
54236;BME280;40151;43.606;1.472;2023-04-04T00:41:31;99389.53;;;17.69;57.29
54236;BME280;40151;43.606;1.472;2023-04-04T00:43:57;99391.25;;;17.70;57.00
54236;BME280;40151;43.606;1.472;2023-04-04T00:46:22;99391.25;;;17.70;57.00
54236;BME280;40151;43.606;1.472;2023-04-04T00:48:49;99385.97;;;17.70;57.06
54236;BME280;40151;43.606;1.472;2023-04-04T00:51:15;99388.69;;;17.69;57.02
54236;BME280;40151;43.606;1.472;2023-04-04T00:53:43;99387.06;;;17.66;57.34
54236;BME280;40151;43.606;1.472;2023-04-04T00:56:10;99380.84;;;17.67;57.05
54236;BME280;40151;43.606;1.472;2023-04-04T00:58:36;99386.13;;;17.67;57.21
54236;BME280;40151;43.606;1.472;2023-04-04T01:01:02;99382.72;;;17.65;56.79
54236;BME280;40151;43.606;1.472;2023-04-04T01:03:28;99378.38;;;17.64;57.05
54236;BME280;40151;43.606;1.472;2023-04-04T01:05:54;99379.19;;;17.65;56.88
54236;BME280;40151;43.606;1.472;2023-04-04T01:08:22;99380.13;;;17.64;56.93
54236;BME280;40151;43.606;1.472;2023-04-04T01:10:49;99371.34;;;17.63;57.14
54236;BME280;40151;43.606;1.472;2023-04-04T01:13:15;99377.56;;;17.62;57.21
54236;BME280;40151;43.606;1.472;2023-04-04T01:15:41;99372.28;;;17.62;57.05
54236;BME280;40151;43.606;1.472;2023-04-04T01:18:07;99368.88;;;17.60;57.15
54236;BME280;40151;43.606;1.472;2023-04-04T01:20:37;99375.09;;;17.59;57.20
54236;BME280;40151;43.606;1.472;2023-04-04T01:23:05;99365.38;;;17.60;57.20
54236;BME280;40151;43.606;1.472;2023-04-04T01:25:31;99367.06;;;17.61;56.88
54236;BME280;40151;43.606;1.472;2023-04-04T01:27:59;99362.72;;;17.60;56.86
54236;BME280;40151;43.606;1.472;2023-04-04T01:30:31;99368.88;;;17.60;56.82
54236;BME280;40151;43.606;1.472;2023-04-04T01:33:04;99366.31;;;17.58;57.10
54236;BME280;40151;43.606;1.472;2023-04-04T01:35:48;99367.16;;;17.59;56.93
54236;BME280;40151;43.606;1.472;2023-04-04T01:38:25;99354.91;;;17.58;56.72
54236;BME280;40151;43.606;1.472;2023-04-04T01:40:54;99365.47;;;17.58;57.02
54236;BME280;40151;43.606;1.472;2023-04-04T01:43:21;99363.66;;;17.58;57.09
54236;BME280;40151;43.606;1.472;2023-04-04T01:45:48;99350.53;;;17.57;56.73
54236;BME280;40151;43.606;1.472;2023-04-04T01:48:13;99350.63;;;17.55;56.85
54236;BME280;40151;43.606;1.472;2023-04-04T01:50:40;99341.00;;;17.54;56.80
54236;BME280;40151;43.606;1.472;2023-04-04T01:53:06;99349.00;;;17.53;56.63
54236;BME280;40151;43.606;1.472;2023-04-04T01:55:32;99351.63;;;17.53;57.13
54236;BME280;40151;43.606;1.472;2023-04-04T01:57:57;99347.19;;;17.53;56.71
54236;BME280;40151;43.606;1.472;2023-04-04T02:00:23;99350.72;;;17.54;56.69
54236;BME280;40151;43.606;1.472;2023-04-04T02:02:48;99345.50;;;17.52;57.01
54236;BME280;40151;43.606;1.472;2023-04-04T02:05:13;99342.91;;;17.51;56.72
54236;BME280;40151;43.606;1.472;2023-04-04T02:07:39;99339.34;;;17.52;56.87
54236;BME280;40151;43.606;1.472;2023-04-04T02:10:05;99346.50;;;17.50;56.72
54236;BME280;40151;43.606;1.472;2023-04-04T02:12:31;99358.75;;;17.51;56.74
54236;BME280;40151;43.606;1.472;2023-04-04T02:14:56;99357.06;;;17.50;56.97
54236;BME280;40151;43.606;1.472;2023-04-04T02:17:21;99362.31;;;17.50;56.61
54236;BME280;40151;43.606;1.472;2023-04-04T02:19:47;99357.13;;;17.48;56.76
54236;BME280;40151;43.606;1.472;2023-04-04T02:22:13;99351.78;;;17.50;56.65
54236;BME280;40151;43.606;1.472;2023-04-04T02:24:39;99357.13;;;17.48;56.60
54236;BME280;40151;43.606;1.472;2023-04-04T02:27:04;99354.56;;;17.47;56.85
54236;BME280;40151;43.606;1.472;2023-04-04T02:29:30;99356.34;;;17.46;56.64
54236;BME280;40151;43.606;1.472;2023-04-04T02:31:55;99358.13;;;17.45;56.63
54236;BME280;40151;43.606;1.472;2023-04-04T02:34:21;99340.59;;;17.44;56.42
54236;BME280;40151;43.606;1.472;2023-04-04T02:36:47;99346.78;;;17.43;56.39
54236;BME280;40151;43.606;1.472;2023-04-04T02:39:12;99345.09;;;17.42;56.54
54236;BME280;40151;43.606;1.472;2023-04-04T02:41:38;99346.84;;;17.42;56.63
54236;BME280;40151;43.606;1.472;2023-04-04T02:44:03;99339.88;;;17.41;56.37
54236;BME280;40151;43.606;1.472;2023-04-04T02:46:28;99343.38;;;17.41;56.52
54236;BME280;40151;43.606;1.472;2023-04-04T02:48:54;99346.97;;;17.40;56.54
54236;BME280;40151;43.606;1.472;2023-04-04T02:51:19;99346.09;;;17.40;56.44
54236;BME280;40151;43.606;1.472;2023-04-04T02:53:45;99349.59;;;17.40;56.46
54236;BME280;40151;43.606;1.472;2023-04-04T02:56:11;99355.72;;;17.41;56.66
54236;BME280;40151;43.606;1.472;2023-04-04T02:58:36;99354.06;;;17.38;56.37
54236;BME280;40151;43.606;1.472;2023-04-04T03:01:01;99362.84;;;17.39;56.34
54236;BME280;40151;43.606;1.472;2023-04-04T03:03:27;99369.91;;;17.38;56.32
54236;BME280;40151;43.606;1.472;2023-04-04T03:05:52;99368.19;;;17.37;56.43
54236;BME280;40151;43.606;1.472;2023-04-04T03:08:18;99356.69;;;17.38;56.31
54236;BME280;40151;43.606;1.472;2023-04-04T03:10:44;99361.28;;;17.35;56.28
54236;BME280;40151;43.606;1.472;2023-04-04T03:13:10;99352.50;;;17.34;56.41
54236;BME280;40151;43.606;1.472;2023-04-04T03:15:35;99351.59;;;17.35;56.46
54236;BME280;40151;43.606;1.472;2023-04-04T03:18:01;99349.94;;;17.33;56.38
54236;BME280;40151;43.606;1.472;2023-04-04T03:20:27;99346.50;;;17.30;56.42
54236;BME280;40151;43.606;1.472;2023-04-04T03:22:52;99344.75;;;17.31;56.32
54236;BME280;40151;43.606;1.472;2023-04-04T03:25:18;99346.59;;;17.29;56.32
54236;BME280;40151;43.606;1.472;2023-04-04T03:27:43;99347.50;;;17.28;56.32
54236;BME280;40151;43.606;1.472;2023-04-04T03:30:09;99341.47;;;17.26;56.29
54236;BME280;40151;43.606;1.472;2023-04-04T03:32:35;99343.22;;;17.25;56.18
54236;BME280;40151;43.606;1.472;2023-04-04T03:35:01;99340.69;;;17.24;56.18
54236;BME280;40151;43.606;1.472;2023-04-04T03:37:28;99342.41;;;17.25;56.22
54236;BME280;40151;43.606;1.472;2023-04-04T03:39:54;99337.13;;;17.25;56.34
54236;BME280;40151;43.606;1.472;2023-04-04T03:42:19;99345.97;;;17.24;56.46
54236;BME280;40151;43.606;1.472;2023-04-04T03:44:46;99344.25;;;17.23;56.54
54236;BME280;40151;43.606;1.472;2023-04-04T03:47:12;99341.69;;;17.21;56.29
54236;BME280;40151;43.606;1.472;2023-04-04T03:49:38;99344.25;;;17.23;56.19
54236;BME280;40151;43.606;1.472;2023-04-04T03:52:04;99342.53;;;17.22;56.09
54236;BME280;40151;43.606;1.472;2023-04-04T03:54:29;99341.69;;;17.21;56.25
54236;BME280;40151;43.606;1.472;2023-04-04T03:56:55;99338.25;;;17.19;56.57
54236;BME280;40151;43.606;1.472;2023-04-04T03:59:21;99337.41;;;17.18;56.24
54236;BME280;40151;43.606;1.472;2023-04-04T04:01:47;99343.53;;;17.19;56.14
54236;BME280;40151;43.606;1.472;2023-04-04T04:04:13;99340.06;;;17.18;56.21
54236;BME280;40151;43.606;1.472;2023-04-04T04:06:38;99345.31;;;17.18;56.04
54236;BME280;40151;43.606;1.472;2023-04-04T04:09:04;99342.69;;;17.18;56.29
54236;BME280;40151;43.606;1.472;2023-04-04T04:11:29;99347.97;;;17.18;55.97
54236;BME280;40151;43.606;1.472;2023-04-04T04:13:55;99350.66;;;17.17;55.90
54236;BME280;40151;43.606;1.472;2023-04-04T04:16:20;99342.69;;;17.18;56.06
54236;BME280;40151;43.606;1.472;2023-04-04T04:18:46;99339.25;;;17.16;56.13
54236;BME280;40151;43.606;1.472;2023-04-04T04:21:12;99344.53;;;17.16;56.30
54236;BME280;40151;43.606;1.472;2023-04-04T04:23:37;99352.53;;;17.15;56.35
54236;BME280;40151;43.606;1.472;2023-04-04T04:26:03;99353.38;;;17.15;56.15
54236;BME280;40151;43.606;1.472;2023-04-04T04:28:29;99354.28;;;17.14;55.90
54236;BME280;40151;43.606;1.472;2023-04-04T04:30:54;99353.38;;;17.15;56.13
54236;BME280;40151;43.606;1.472;2023-04-04T04:33:26;99356.94;;;17.14;56.02
54236;BME280;40151;43.606;1.472;2023-04-04T04:35:57;99353.47;;;17.14;56.19
54236;BME280;40151;43.606;1.472;2023-04-04T04:38:22;99355.22;;;17.13;56.01
54236;BME280;40151;43.606;1.472;2023-04-04T04:40:48;99347.44;;;17.10;56.00
54236;BME280;40151;43.606;1.472;2023-04-04T04:43:13;99350.94;;;17.11;56.20
54236;BME280;40151;43.606;1.472;2023-04-04T04:45:40;99348.38;;;17.09;56.01
54236;BME280;40151;43.606;1.472;2023-04-04T04:48:06;99350.09;;;17.10;56.20
54236;BME280;40151;43.606;1.472;2023-04-04T04:50:32;99350.19;;;17.09;56.38
54236;BME280;40151;43.606;1.472;2023-04-04T04:52:57;99351.81;;;17.11;56.22
54236;BME280;40151;43.606;1.472;2023-04-04T04:55:22;99358.78;;;17.12;56.36
54236;BME280;40151;43.606;1.472;2023-04-04T04:57:48;99357.94;;;17.12;56.26
54236;BME280;40151;43.606;1.472;2023-04-04T05:00:14;99354.34;;;17.13;55.99
54236;BME280;40151;43.606;1.472;2023-04-04T05:02:41;99359.56;;;17.14;56.24
54236;BME280;40151;43.606;1.472;2023-04-04T05:05:06;99361.38;;;17.14;56.10
54236;BME280;40151;43.606;1.472;2023-04-04T05:07:32;99358.09;;;17.09;56.29
54236;BME280;40151;43.606;1.472;2023-04-04T05:13:44;99364.34;;;17.06;55.95
54236;BME280;40151;43.606;1.472;2023-04-04T05:16:09;99367.91;;;17.05;56.12
54236;BME280;40151;43.606;1.472;2023-04-04T05:18:35;99375.69;;;17.08;56.08
54236;BME280;40151;43.606;1.472;2023-04-04T05:21:00;99381.88;;;17.07;55.70
54236;BME280;40151;43.606;1.472;2023-04-04T05:23:26;99369.63;;;17.06;56.01
54236;BME280;40151;43.606;1.472;2023-04-04T05:25:52;99381.16;;;17.03;56.17
54236;BME280;40151;43.606;1.472;2023-04-04T05:28:18;99378.47;;;17.05;56.22
54236;BME280;40151;43.606;1.472;2023-04-04T05:30:45;99382.00;;;17.04;56.66
54236;BME280;40151;43.606;1.472;2023-04-04T05:33:10;99382.00;;;17.04;56.72
54236;BME280;40151;43.606;1.472;2023-04-04T05:35:36;99384.72;;;17.02;57.20
54236;BME280;40151;43.606;1.472;2023-04-04T05:38:01;99397.81;;;17.04;57.44
54236;BME280;40151;43.606;1.472;2023-04-04T05:40:27;99404.84;;;17.05;57.21
54236;BME280;40151;43.606;1.472;2023-04-04T05:42:56;99410.16;;;17.03;57.16
54236;BME280;40151;43.606;1.472;2023-04-04T05:45:22;99411.94;;;17.03;57.36
54236;BME280;40151;43.606;1.472;2023-04-04T05:47:48;99416.28;;;17.04;57.52
54236;BME280;40151;43.606;1.472;2023-04-04T05:50:13;99418.09;;;17.02;57.44
54236;BME280;40151;43.606;1.472;2023-04-04T05:52:39;99420.72;;;17.03;57.53
54236;BME280;40151;43.606;1.472;2023-04-04T05:55:05;99425.06;;;17.04;57.28
54236;BME280;40151;43.606;1.472;2023-04-04T05:57:31;99424.31;;;17.01;57.33
54236;BME280;40151;43.606;1.472;2023-04-04T05:59:57;99427.00;;;16.99;57.50
54236;BME280;40151;43.606;1.472;2023-04-04T06:02:22;99432.34;;;16.98;57.50
54236;BME280;40151;43.606;1.472;2023-04-04T06:04:48;99434.97;;;16.98;57.63
54236;BME280;40151;43.606;1.472;2023-04-04T06:07:13;99434.13;;;16.97;57.59
54236;BME280;40151;43.606;1.472;2023-04-04T06:09:39;99437.59;;;16.98;57.45
54236;BME280;40151;43.606;1.472;2023-04-04T06:12:05;99435.13;;;16.95;57.63
54236;BME280;40151;43.606;1.472;2023-04-04T06:14:31;99440.41;;;16.95;57.74
54236;BME280;40151;43.606;1.472;2023-04-04T06:16:57;99439.47;;;16.96;57.65
54236;BME280;40151;43.606;1.472;2023-04-04T06:19:22;99441.22;;;16.95;57.75
54236;BME280;40151;43.606;1.472;2023-04-04T06:21:48;99443.97;;;16.94;57.44
54236;BME280;40151;43.606;1.472;2023-04-04T06:24:13;99451.06;;;16.91;57.69
54236;BME280;40151;43.606;1.472;2023-04-04T06:26:39;99451.22;;;16.88;57.71
54236;BME280;40151;43.606;1.472;2023-04-04T06:29:04;99459.91;;;16.90;57.58
54236;BME280;40151;43.606;1.472;2023-04-04T06:31:30;99459.13;;;16.88;57.41
54236;BME280;40151;43.606;1.472;2023-04-04T06:33:56;99454.78;;;16.87;57.50
54236;BME280;40151;43.606;1.472;2023-04-04T06:36:21;99459.91;;;16.90;57.70
54236;BME280;40151;43.606;1.472;2023-04-04T06:38:47;99444.16;;;16.89;57.70
54236;BME280;40151;43.606;1.472;2023-04-04T06:41:12;99452.13;;;16.87;57.56
54236;BME280;40151;43.606;1.472;2023-04-04T06:43:38;99457.31;;;16.89;57.60
54236;BME280;40151;43.606;1.472;2023-04-04T06:46:03;99458.25;;;16.88;57.69
54236;BME280;40151;43.606;1.472;2023-04-04T06:48:28;99454.78;;;16.87;57.20
54236;BME280;40151;43.606;1.472;2023-04-04T06:50:54;99453.91;;;16.87;57.47
54236;BME280;40151;43.606;1.472;2023-04-04T06:53:19;99446.06;;;16.85;57.31
54236;BME280;40151;43.606;1.472;2023-04-04T06:55:45;99449.63;;;16.84;57.27
54236;BME280;40151;43.606;1.472;2023-04-04T06:58:10;99442.66;;;16.83;57.39
54236;BME280;40151;43.606;1.472;2023-04-04T07:00:36;99446.06;;;16.85;57.75
54236;BME280;40151;43.606;1.472;2023-04-04T07:03:01;99446.06;;;16.85;57.27
54236;BME280;40151;43.606;1.472;2023-04-04T07:05:27;99441.66;;;16.86;57.58
54236;BME280;40151;43.606;1.472;2023-04-04T07:07:53;99451.34;;;16.85;56.93
54236;BME280;40151;43.606;1.472;2023-04-04T07:10:22;99455.69;;;16.86;57.15
54236;BME280;40151;43.606;1.472;2023-04-04T07:12:48;99459.13;;;16.88;57.00
54236;BME280;40151;43.606;1.472;2023-04-04T07:15:13;99461.75;;;16.88;56.87
54236;BME280;40151;43.606;1.472;2023-04-04T07:17:39;99465.31;;;16.87;56.70
54236;BME280;40151;43.606;1.472;2023-04-04T07:20:06;99468.72;;;16.89;56.85
54236;BME280;40151;43.606;1.472;2023-04-04T07:22:32;99474.94;;;16.88;57.20
54236;BME280;40151;43.606;1.472;2023-04-04T07:24:57;99476.63;;;16.89;56.98
54236;BME280;40151;43.606;1.472;2023-04-04T07:27:23;99486.41;;;16.87;56.94
54236;BME280;40151;43.606;1.472;2023-04-04T07:29:48;99488.13;;;16.88;56.81
54236;BME280;40151;43.606;1.472;2023-04-04T07:32:13;99492.44;;;16.89;56.62
54236;BME280;40151;43.606;1.472;2023-04-04T07:34:39;99491.53;;;16.90;56.71
54236;BME280;40151;43.606;1.472;2023-04-04T07:37:04;99489.03;;;16.87;56.83
54236;BME280;40151;43.606;1.472;2023-04-04T07:39:30;99489.81;;;16.89;56.99
54236;BME280;40151;43.606;1.472;2023-04-04T07:41:56;99497.66;;;16.91;56.61
54236;BME280;40151;43.606;1.472;2023-04-04T07:44:21;99494.94;;;16.92;56.76
54236;BME280;40151;43.606;1.472;2023-04-04T07:46:46;99487.91;;;16.93;56.62
54236;BME280;40151;43.606;1.472;2023-04-04T07:49:12;99481.69;;;16.94;56.40
54236;BME280;40151;43.606;1.472;2023-04-04T07:51:37;99486.13;;;16.94;56.63
54236;BME280;40151;43.606;1.472;2023-04-04T07:54:04;99493.13;;;16.95;56.25
54236;BME280;40151;43.606;1.472;2023-04-04T07:56:29;99479.88;;;16.96;56.25
54236;BME280;40151;43.606;1.472;2023-04-04T07:58:55;99494.59;;;17.00;56.30
54236;BME280;40151;43.606;1.472;2023-04-04T08:01:20;99494.66;;;16.99;56.27
54236;BME280;40151;43.606;1.472;2023-04-04T08:03:46;99501.56;;;17.03;56.13
54236;BME280;40151;43.606;1.472;2023-04-04T08:06:11;99491.97;;;17.00;56.44
54236;BME280;40151;43.606;1.472;2023-04-04T08:08:37;99503.38;;;17.01;56.45
54236;BME280;40151;43.606;1.472;2023-04-04T08:11:03;99492.59;;;17.07;55.95
54236;BME280;40151;43.606;1.472;2023-04-04T08:13:28;99496.16;;;17.06;56.14
54236;BME280;40151;43.606;1.472;2023-04-04T08:15:53;99500.50;;;17.07;55.98
54236;BME280;40151;43.606;1.472;2023-04-04T08:18:19;99491.56;;;17.11;56.05
54236;BME280;40151;43.606;1.472;2023-04-04T08:20:44;99498.59;;;17.11;55.92
54236;BME280;40151;43.606;1.472;2023-04-04T08:23:10;99490.63;;;17.12;55.84
54236;BME280;40151;43.606;1.472;2023-04-04T08:25:37;99500.97;;;17.17;55.85
54236;BME280;40151;43.606;1.472;2023-04-04T08:28:03;99491.28;;;17.17;55.66
54236;BME280;40151;43.606;1.472;2023-04-04T08:30:29;99497.34;;;17.20;55.53
54236;BME280;40151;43.606;1.472;2023-04-04T08:32:55;99497.34;;;17.20;55.43
54236;BME280;40151;43.606;1.472;2023-04-04T08:35:21;99492.84;;;17.22;55.52
54236;BME280;40151;43.606;1.472;2023-04-04T08:37:47;99488.50;;;17.21;55.46
54236;BME280;40151;43.606;1.472;2023-04-04T08:40:13;99484.94;;;17.22;55.52
54236;BME280;40151;43.606;1.472;2023-04-04T08:42:40;99488.50;;;17.21;55.15
54236;BME280;40151;43.606;1.472;2023-04-04T08:45:08;99488.50;;;17.21;55.63
54236;BME280;40151;43.606;1.472;2023-04-04T08:47:34;99487.50;;;17.23;55.18
54236;BME280;40151;43.606;1.472;2023-04-04T08:50:05;99489.38;;;17.21;55.43
54236;BME280;40151;43.606;1.472;2023-04-04T08:52:34;99492.78;;;17.23;55.36
54236;BME280;40151;43.606;1.472;2023-04-04T08:55:04;99490.06;;;17.25;55.38
54236;BME280;40151;43.606;1.472;2023-04-04T08:57:29;99483.22;;;17.21;55.49
54236;BME280;40151;43.606;1.472;2023-04-04T08:59:55;99490.19;;;17.22;55.27
54236;BME280;40151;43.606;1.472;2023-04-04T09:03:32;99489.22;;;17.24;55.18
54236;BME280;40151;43.606;1.472;2023-04-04T09:05:26;99483.94;;;17.24;55.07
54236;BME280;40151;43.606;1.472;2023-04-04T09:07:52;99488.22;;;17.27;55.12
54236;BME280;40151;43.606;1.472;2023-04-04T09:10:18;99504.84;;;17.29;55.13
54236;BME280;40151;43.606;1.472;2023-04-04T09:12:44;99504.84;;;17.29;55.07
54236;BME280;40151;43.606;1.472;2023-04-04T09:15:11;99507.47;;;17.29;55.17
54236;BME280;40151;43.606;1.472;2023-04-04T09:17:38;99505.63;;;17.31;54.98
54236;BME280;40151;43.606;1.472;2023-04-04T09:20:33;99515.31;;;17.30;55.39
54236;BME280;40151;43.606;1.472;2023-04-04T09:22:59;99505.63;;;17.31;55.13
54236;BME280;40151;43.606;1.472;2023-04-04T09:25:25;99511.69;;;17.33;54.85
54236;BME280;40151;43.606;1.472;2023-04-04T09:27:53;99508.09;;;17.34;54.96
54236;BME280;40151;43.606;1.472;2023-04-04T09:30:20;99511.69;;;17.33;55.22
54236;BME280;40151;43.606;1.472;2023-04-04T09:32:46;99523.03;;;17.35;55.01
54236;BME280;40151;43.606;1.472;2023-04-04T09:35:11;99517.75;;;17.35;55.17
54236;BME280;40151;43.606;1.472;2023-04-04T09:37:40;99518.53;;;17.37;55.04
54236;BME280;40151;43.606;1.472;2023-04-04T09:40:08;99521.16;;;17.37;54.76
54236;BME280;40151;43.606;1.472;2023-04-04T09:42:34;99530.78;;;17.38;55.08
54236;BME280;40151;43.606;1.472;2023-04-04T09:45:00;99516.75;;;17.38;54.95
54236;BME280;40151;43.606;1.472;2023-04-04T09:47:27;99524.59;;;17.39;54.80
54236;BME280;40151;43.606;1.472;2023-04-04T09:50:01;99524.59;;;17.39;55.06
54236;BME280;40151;43.606;1.472;2023-04-04T09:52:31;99529.75;;;17.42;54.79
54236;BME280;40151;43.606;1.472;2023-04-04T09:55:04;99538.50;;;17.43;54.67
54236;BME280;40151;43.606;1.472;2023-04-04T09:57:32;99538.44;;;17.44;54.68
54236;BME280;40151;43.606;1.472;2023-04-04T10:00:04;99536.72;;;17.43;54.98
54236;BME280;40151;43.606;1.472;2023-04-04T10:02:32;99541.13;;;17.43;54.67
54236;BME280;40151;43.606;1.472;2023-04-04T10:04:59;99550.78;;;17.44;54.97
54236;BME280;40151;43.606;1.472;2023-04-04T10:07:27;99534.88;;;17.45;54.96
54236;BME280;40151;43.606;1.472;2023-04-04T10:09:53;99551.56;;;17.46;54.88
54236;BME280;40151;43.606;1.472;2023-04-04T10:12:23;99547.16;;;17.47;54.81
54236;BME280;40151;43.606;1.472;2023-04-04T10:14:58;99557.72;;;17.47;54.81
54236;BME280;40151;43.606;1.472;2023-04-04T10:17:29;99549.69;;;17.48;54.87
54236;BME280;40151;43.606;1.472;2023-04-04T10:19:59;99547.00;;;17.50;54.84
54236;BME280;40151;43.606;1.472;2023-04-04T10:22:25;99545.28;;;17.49;54.80
54236;BME280;40151;43.606;1.472;2023-04-04T10:24:51;99549.63;;;17.50;54.69
54236;BME280;40151;43.606;1.472;2023-04-04T10:27:19;99552.28;;;17.50;54.85
54236;BME280;40151;43.606;1.472;2023-04-04T10:29:47;99560.97;;;17.52;54.62
54236;BME280;40151;43.606;1.472;2023-04-04T10:32:17;99567.97;;;17.53;54.92
54236;BME280;40151;43.606;1.472;2023-04-04T10:34:54;99567.09;;;17.52;54.65
54236;BME280;40151;43.606;1.472;2023-04-04T10:37:25;99562.69;;;17.53;54.60
54236;BME280;40151;43.606;1.472;2023-04-04T10:40:13;99570.53;;;17.54;54.57
54236;BME280;40151;43.606;1.472;2023-04-04T10:42:43;99565.19;;;17.56;54.53
54236;BME280;40151;43.606;1.472;2023-04-04T10:45:09;99567.81;;;17.56;54.49
54236;BME280;40151;43.606;1.472;2023-04-04T10:47:36;99566.91;;;17.57;54.80
54236;BME280;40151;43.606;1.472;2023-04-04T10:50:03;99568.53;;;17.60;54.54
54236;BME280;40151;43.606;1.472;2023-04-04T10:52:32;99567.59;;;17.61;54.68
54236;BME280;40151;43.606;1.472;2023-04-04T10:55:01;99564.13;;;17.60;54.74
54236;BME280;40151;43.606;1.472;2023-04-04T10:57:28;99571.13;;;17.61;54.70
54236;BME280;40151;43.606;1.472;2023-04-04T11:05:38;99573.53;;;17.66;54.69
54236;BME280;40151;43.606;1.472;2023-04-04T11:08:18;99570.84;;;17.67;54.59
54236;BME280;40151;43.606;1.472;2023-04-04T11:10:48;99577.00;;;17.68;54.75
54236;BME280;40151;43.606;1.472;2023-04-04T11:13:18;99574.25;;;17.69;54.61
54236;BME280;40151;43.606;1.472;2023-04-04T11:16:06;99578.63;;;17.70;54.49
54236;BME280;40151;43.606;1.472;2023-04-04T11:21:22;99568.84;;;17.73;54.36
54236;BME280;40151;43.606;1.472;2023-04-04T11:28:55;99580.13;;;17.76;54.29
54236;BME280;40151;43.606;1.472;2023-04-04T11:31:23;99587.97;;;17.78;54.35
54236;BME280;40151;43.606;1.472;2023-04-04T11:39:29;99565.00;;;17.80;54.19
54236;BME280;40151;43.606;1.472;2023-04-04T11:42:11;99564.00;;;17.82;54.51
54236;BME280;40151;43.606;1.472;2023-04-04T11:47:19;99568.28;;;17.85;54.66
54236;BME280;40151;43.606;1.472;2023-04-04T11:49:48;99561.31;;;17.84;54.33
54236;BME280;40151;43.606;1.472;2023-04-04T11:52:15;99562.13;;;17.84;54.31
54236;BME280;40151;43.606;1.472;2023-04-04T11:54:43;99564.72;;;17.86;54.50
54236;BME280;40151;43.606;1.472;2023-04-04T11:57:13;99562.06;;;17.86;54.55
54236;BME280;40151;43.606;1.472;2023-04-04T11:59:40;99563.72;;;17.89;54.55
54236;BME280;40151;43.606;1.472;2023-04-04T12:02:08;99561.94;;;17.89;54.46
54236;BME280;40151;43.606;1.472;2023-04-04T12:04:35;99554.88;;;17.90;54.77
54236;BME280;40151;43.606;1.472;2023-04-04T12:07:01;99562.72;;;17.91;54.88
54236;BME280;40151;43.606;1.472;2023-04-04T12:09:28;99553.88;;;17.92;54.78
54236;BME280;40151;43.606;1.472;2023-04-04T12:11:54;99553.03;;;17.92;54.90
54236;BME280;40151;43.606;1.472;2023-04-04T12:14:22;99555.56;;;17.93;55.10
54236;BME280;40151;43.606;1.472;2023-04-04T12:16:53;99553.75;;;17.95;54.69
54236;BME280;40151;43.606;1.472;2023-04-04T12:19:21;99557.22;;;17.96;54.86
54236;BME280;40151;43.606;1.472;2023-04-04T12:21:48;99554.50;;;17.97;54.90
54236;BME280;40151;43.606;1.472;2023-04-04T12:24:13;99557.16;;;17.97;54.87
54236;BME280;40151;43.606;1.472;2023-04-04T12:26:41;99548.31;;;17.98;55.18
54236;BME280;40151;43.606;1.472;2023-04-04T12:29:11;99555.31;;;18.00;55.16
54236;BME280;40151;43.606;1.472;2023-04-04T12:31:38;99562.31;;;18.01;55.10
54236;BME280;40151;43.606;1.472;2023-04-04T12:34:05;99557.88;;;18.01;54.92
54236;BME280;40151;43.606;1.472;2023-04-04T12:36:31;99551.59;;;18.04;55.20
54236;BME280;40151;43.606;1.472;2023-04-04T12:39:07;99553.28;;;18.05;55.01
54236;BME280;40151;43.606;1.472;2023-04-04T12:41:33;99550.63;;;18.06;54.96
54236;BME280;40151;43.606;1.472;2023-04-04T12:44:01;99545.34;;;18.06;55.21
54236;BME280;40151;43.606;1.472;2023-04-04T12:46:27;99546.19;;;18.07;54.85
54236;BME280;40151;43.606;1.472;2023-04-04T12:48:59;99538.22;;;18.08;54.95
54236;BME280;40151;43.606;1.472;2023-04-04T12:51:30;99547.84;;;18.09;54.96
54236;BME280;40151;43.606;1.472;2023-04-04T12:53:56;99535.47;;;18.10;55.01
54236;BME280;40151;43.606;1.472;2023-04-04T12:56:25;99534.53;;;18.11;55.10
54236;BME280;40151;43.606;1.472;2023-04-04T12:58:51;99526.56;;;18.13;54.88
54236;BME280;40151;43.606;1.472;2023-04-04T13:01:20;99528.34;;;18.12;54.74
54236;BME280;40151;43.606;1.472;2023-04-04T13:03:45;99524.78;;;18.13;54.72
54236;BME280;40151;43.606;1.472;2023-04-04T13:06:15;99527.34;;;18.15;54.98
54236;BME280;40151;43.606;1.472;2023-04-04T13:08:51;99529.91;;;18.16;54.91
54236;BME280;40151;43.606;1.472;2023-04-04T13:11:16;99529.00;;;18.17;54.85
54236;BME280;40151;43.606;1.472;2023-04-04T13:13:42;99521.91;;;18.18;54.79
54236;BME280;40151;43.606;1.472;2023-04-04T13:16:09;99529.78;;;18.19;54.93
54236;BME280;40151;43.606;1.472;2023-04-04T13:18:36;99510.41;;;18.19;54.75
54236;BME280;40151;43.606;1.472;2023-04-04T13:21:03;99520.91;;;18.20;54.76
54236;BME280;40151;43.606;1.472;2023-04-04T13:23:30;99515.63;;;18.20;54.85